sensor_id;sensor_type;location;lat;lon;timestamp;pressure;altitude;pressure_sealevel;temperature;humidity
3132;BME280;62090;52.330;9.104;2023-05-22T00:02:18;100886.72;;;20.78;72.39
3132;BME280;62090;52.330;9.104;2023-05-22T00:04:49;100902.19;;;20.84;72.87
3132;BME280;62090;52.330;9.104;2023-05-22T00:07:20;100866.31;;;20.60;72.64
3132;BME280;62090;52.330;9.104;2023-05-22T00:09:52;100874.88;;;20.63;71.86
3132;BME280;62090;52.330;9.104;2023-05-22T00:12:22;100890.25;;;20.74;71.99
3132;BME280;62090;52.330;9.104;2023-05-22T00:14:52;100889.28;;;20.83;71.30
3132;BME280;62090;52.330;9.104;2023-05-22T00:17:22;100897.78;;;20.89;71.08
3132;BME280;62090;52.330;9.104;2023-05-22T00:19:53;100903.91;;;20.85;70.68
3132;BME280;62090;52.330;9.104;2023-05-22T00:22:33;100853.53;;;20.49;71.15
3132;BME280;62090;52.330;9.104;2023-05-22T00:25:08;100874.66;;;20.79;70.80
3132;BME280;62090;52.330;9.104;2023-05-22T00:27:38;100895.25;;;20.88;70.74
3132;BME280;62090;52.330;9.104;2023-05-22T00:30:09;100874.56;;;20.83;70.46
3132;BME280;62090;52.330;9.104;2023-05-22T00:32:39;100849.84;;;20.64;70.32
3132;BME280;62090;52.330;9.104;2023-05-22T00:35:09;100888.28;;;20.91;70.33
3132;BME280;62090;52.330;9.104;2023-05-22T00:37:39;100887.41;;;20.92;70.18
3132;BME280;62090;52.330;9.104;2023-05-22T00:40:13;100883.25;;;20.81;70.57
3132;BME280;62090;52.330;9.104;2023-05-22T00:42:44;100859.31;;;20.65;71.28
3132;BME280;62090;52.330;9.104;2023-05-22T00:45:14;100872.19;;;20.71;71.20
3132;BME280;62090;52.330;9.104;2023-05-22T00:47:45;100877.38;;;20.71;71.49
3132;BME280;62090;52.330;9.104;2023-05-22T00:50:17;100857.75;;;20.55;71.32
3132;BME280;62090;52.330;9.104;2023-05-22T00:52:48;100851.09;;;20.36;72.56
3132;BME280;62090;52.330;9.104;2023-05-22T00:55:20;100862.22;;;20.44;72.64
3132;BME280;62090;52.330;9.104;2023-05-22T00:57:51;100856.38;;;20.30;72.51
3132;BME280;62090;52.330;9.104;2023-05-22T01:00:21;100875.91;;;20.52;72.22
3132;BME280;62090;52.330;9.104;2023-05-22T01:02:52;100860.50;;;20.43;71.47
3132;BME280;62090;52.330;9.104;2023-05-22T01:05:22;100854.31;;;20.53;71.47
3132;BME280;62090;52.330;9.104;2023-05-22T01:07:52;100848.44;;;20.43;71.70
3132;BME280;62090;52.330;9.104;2023-05-22T01:10:25;100878.47;;;20.55;71.81
3132;BME280;62090;52.330;9.104;2023-05-22T01:13:02;100830.56;;;20.23;71.84
3132;BME280;62090;52.330;9.104;2023-05-22T01:15:39;100864.81;;;20.44;72.11
3132;BME280;62090;52.330;9.104;2023-05-22T01:18:16;100861.38;;;20.42;72.65
3132;BME280;62090;52.330;9.104;2023-05-22T01:20:53;100859.78;;;20.35;72.72
3132;BME280;62090;52.330;9.104;2023-05-22T01:23:48;100847.97;;;20.12;73.01
3132;BME280;62090;52.330;9.104;2023-05-22T01:26:42;100863.28;;;20.28;72.98
3132;BME280;62090;52.330;9.104;2023-05-22T01:29:45;100857.38;;;20.18;73.16
3132;BME280;62090;52.330;9.104;2023-05-22T01:32:20;100847.91;;;20.15;73.73
3132;BME280;62090;52.330;9.104;2023-05-22T01:34:53;100865.94;;;20.23;73.97
3132;BME280;62090;52.330;9.104;2023-05-22T01:37:24;100865.19;;;20.13;74.38
3132;BME280;62090;52.330;9.104;2023-05-22T01:39:54;100871.25;;;20.11;74.84
3132;BME280;62090;52.330;9.104;2023-05-22T01:42:24;100866.91;;;20.14;74.58
3132;BME280;62090;52.330;9.104;2023-05-22T01:44:55;100880.69;;;20.16;74.45
3132;BME280;62090;52.330;9.104;2023-05-22T01:47:28;100872.97;;;20.13;75.03
3132;BME280;62090;52.330;9.104;2023-05-22T01:50:01;100875.69;;;20.01;75.34
3132;BME280;62090;52.330;9.104;2023-05-22T01:52:36;100872.25;;;20.02;75.70
3132;BME280;62090;52.330;9.104;2023-05-22T01:55:11;100874.91;;;19.95;76.47
3132;BME280;62090;52.330;9.104;2023-05-22T01:57:46;100851.03;;;19.73;76.53
3132;BME280;62090;52.330;9.104;2023-05-22T02:00:20;100883.59;;;19.91;76.92
3132;BME280;62090;52.330;9.104;2023-05-22T02:03:07;100883.53;;;19.97;76.70
3132;BME280;62090;52.330;9.104;2023-05-22T02:05:43;100878.34;;;19.97;76.87
3132;BME280;62090;52.330;9.104;2023-05-22T02:08:15;100826.13;;;19.63;76.73
3132;BME280;62090;52.330;9.104;2023-05-22T02:10:45;100875.75;;;19.95;76.37
3132;BME280;62090;52.330;9.104;2023-05-22T02:13:20;100882.78;;;19.87;76.83
3132;BME280;62090;52.330;9.104;2023-05-22T02:15:50;100868.19;;;19.80;76.07
3132;BME280;62090;52.330;9.104;2023-05-22T02:18:24;100848.50;;;19.68;76.39
3132;BME280;62090;52.330;9.104;2023-05-22T02:20:55;100867.50;;;19.66;77.16
3132;BME280;62090;52.330;9.104;2023-05-22T02:23:26;100868.53;;;19.50;77.70
3132;BME280;62090;52.330;9.104;2023-05-22T02:25:57;100868.66;;;19.31;78.28
3132;BME280;62090;52.330;9.104;2023-05-22T02:28:26;100814.66;;;19.04;78.03
3132;BME280;62090;52.330;9.104;2023-05-22T02:30:56;100847.25;;;19.19;78.43
3132;BME280;62090;52.330;9.104;2023-05-22T02:33:29;100854.94;;;19.26;78.60
3132;BME280;62090;52.330;9.104;2023-05-22T02:35:59;100846.34;;;19.24;78.67
3132;BME280;62090;52.330;9.104;2023-05-22T02:38:29;100846.25;;;19.33;78.20
3132;BME280;62090;52.330;9.104;2023-05-22T02:40:59;100844.53;;;19.34;77.89
3132;BME280;62090;52.330;9.104;2023-05-22T02:43:31;100823.91;;;19.25;77.71
3132;BME280;62090;52.330;9.104;2023-05-22T02:46:01;100852.22;;;19.38;78.44
3132;BME280;62090;52.330;9.104;2023-05-22T02:48:33;100831.75;;;19.17;78.57
3132;BME280;62090;52.330;9.104;2023-05-22T02:51:03;100850.63;;;19.27;78.66
3132;BME280;62090;52.330;9.104;2023-05-22T02:53:33;100838.59;;;19.21;78.56
3132;BME280;62090;52.330;9.104;2023-05-22T02:56:06;100856.59;;;19.32;78.69
3132;BME280;62090;52.330;9.104;2023-05-22T02:58:37;100847.22;;;19.20;78.90
3132;BME280;62090;52.330;9.104;2023-05-22T03:01:07;100852.53;;;19.08;79.36
3132;BME280;62090;52.330;9.104;2023-05-22T03:03:40;100799.38;;;18.78;79.95
3132;BME280;62090;52.330;9.104;2023-05-22T03:06:10;100834.53;;;18.94;79.87
3132;BME280;62090;52.330;9.104;2023-05-22T03:08:40;100783.13;;;18.70;80.06
3132;BME280;62090;52.330;9.104;2023-05-22T03:11:11;100854.25;;;19.06;80.01
3132;BME280;62090;52.330;9.104;2023-05-22T03:13:40;100843.97;;;19.03;80.54
3132;BME280;62090;52.330;9.104;2023-05-22T03:16:10;100851.66;;;19.08;80.84
3132;BME280;62090;52.330;9.104;2023-05-22T03:18:46;100846.47;;;19.09;80.55
3132;BME280;62090;52.330;9.104;2023-05-22T03:21:16;100835.31;;;19.06;80.23
3132;BME280;62090;52.330;9.104;2023-05-22T03:23:46;100838.69;;;19.12;80.21
3132;BME280;62090;52.330;9.104;2023-05-22T03:26:16;100827.66;;;18.93;80.86
3132;BME280;62090;52.330;9.104;2023-05-22T03:28:47;100834.53;;;18.97;80.28
3132;BME280;62090;52.330;9.104;2023-05-22T03:31:17;100837.28;;;18.75;81.60
3132;BME280;62090;52.330;9.104;2023-05-22T03:34:01;100845.00;;;18.79;81.11
3132;BME280;62090;52.330;9.104;2023-05-22T03:36:33;100832.13;;;18.76;80.79
3132;BME280;62090;52.330;9.104;2023-05-22T03:39:04;100829.53;;;18.75;80.54
3132;BME280;62090;52.330;9.104;2023-05-22T03:41:39;100843.22;;;18.84;80.34
3132;BME280;62090;52.330;9.104;2023-05-22T03:44:10;100828.72;;;18.68;80.61
3132;BME280;62090;52.330;9.104;2023-05-22T03:46:40;100835.56;;;18.74;80.45
3132;BME280;62090;52.330;9.104;2023-05-22T03:49:12;100824.38;;;18.75;80.06
3132;BME280;62090;52.330;9.104;2023-05-22T03:51:42;100819.34;;;18.56;81.04
3132;BME280;62090;52.330;9.104;2023-05-22T03:54:15;100826.22;;;18.56;81.34
3132;BME280;62090;52.330;9.104;2023-05-22T03:56:44;100835.59;;;18.68;81.17
3132;BME280;62090;52.330;9.104;2023-05-22T03:59:14;100837.28;;;18.72;81.20
3132;BME280;62090;52.330;9.104;2023-05-22T04:01:44;100810.72;;;18.61;81.12
3132;BME280;62090;52.330;9.104;2023-05-22T04:04:19;100816.69;;;18.69;80.28
3132;BME280;62090;52.330;9.104;2023-05-22T04:06:52;100815.75;;;18.77;80.45
3132;BME280;62090;52.330;9.104;2023-05-22T04:09:25;100828.50;;;18.94;79.93
3132;BME280;62090;52.330;9.104;2023-05-22T04:11:56;100825.06;;;18.95;79.74
3132;BME280;62090;52.330;9.104;2023-05-22T04:14:27;100825.84;;;19.06;79.32
3132;BME280;62090;52.330;9.104;2023-05-22T04:16:58;100824.03;;;19.14;78.94
3132;BME280;62090;52.330;9.104;2023-05-22T04:19:30;100836.88;;;19.22;79.02
3132;BME280;62090;52.330;9.104;2023-05-22T04:22:00;100815.41;;;19.17;78.52
3132;BME280;62090;52.330;9.104;2023-05-22T04:24:30;100817.94;;;19.20;78.54
3132;BME280;62090;52.330;9.104;2023-05-22T04:27:00;100828.19;;;19.30;78.69
3132;BME280;62090;52.330;9.104;2023-05-22T04:29:30;100819.56;;;19.31;78.13
3132;BME280;62090;52.330;9.104;2023-05-22T04:32:02;100824.66;;;19.37;78.30
3132;BME280;62090;52.330;9.104;2023-05-22T04:34:38;100821.28;;;19.32;78.60
3132;BME280;62090;52.330;9.104;2023-05-22T04:37:08;100817.78;;;19.38;78.33
3132;BME280;62090;52.330;9.104;2023-05-22T04:39:40;100810.03;;;19.38;78.58
3132;BME280;62090;52.330;9.104;2023-05-22T04:42:11;100827.09;;;19.56;78.41
3132;BME280;62090;52.330;9.104;2023-05-22T04:44:41;100816.78;;;19.54;78.42
3132;BME280;62090;52.330;9.104;2023-05-22T04:47:12;100819.34;;;19.54;78.68
3132;BME280;62090;52.330;9.104;2023-05-22T04:49:45;100815.00;;;19.58;78.74
3132;BME280;62090;52.330;9.104;2023-05-22T04:52:15;100828.78;;;19.57;79.15
3132;BME280;62090;52.330;9.104;2023-05-22T04:54:45;100823.66;;;19.55;79.56
3132;BME280;62090;52.330;9.104;2023-05-22T04:57:17;100817.63;;;19.55;79.24
3132;BME280;62090;52.330;9.104;2023-05-22T04:59:48;100832.09;;;19.71;79.75
3132;BME280;62090;52.330;9.104;2023-05-22T05:02:19;100827.69;;;19.79;78.95
3132;BME280;62090;52.330;9.104;2023-05-22T05:04:51;100827.59;;;19.85;78.73
3132;BME280;62090;52.330;9.104;2023-05-22T05:07:22;100818.16;;;19.83;79.36
3132;BME280;62090;52.330;9.104;2023-05-22T05:09:52;100789.00;;;19.70;79.38
3132;BME280;62090;52.330;9.104;2023-05-22T05:12:21;100814.63;;;19.90;79.59
3132;BME280;62090;52.330;9.104;2023-05-22T05:14:51;100827.38;;;20.03;79.79
3132;BME280;62090;52.330;9.104;2023-05-22T05:17:21;100820.41;;;20.08;78.85
3132;BME280;62090;52.330;9.104;2023-05-22T05:19:54;100820.31;;;20.16;78.68
3132;BME280;62090;52.330;9.104;2023-05-22T05:22:24;100821.09;;;20.21;78.41
3132;BME280;62090;52.330;9.104;2023-05-22T05:24:55;100795.44;;;20.06;78.32
3132;BME280;62090;52.330;9.104;2023-05-22T05:27:25;100798.00;;;20.07;77.74
3132;BME280;62090;52.330;9.104;2023-05-22T05:29:55;100818.38;;;20.35;78.16
3132;BME280;62090;52.330;9.104;2023-05-22T05:32:37;100808.03;;;20.32;78.42
3132;BME280;62090;52.330;9.104;2023-05-22T05:35:33;100800.19;;;20.36;78.29
3132;BME280;62090;52.330;9.104;2023-05-22T05:38:07;100828.56;;;20.45;78.23
3132;BME280;62090;52.330;9.104;2023-05-22T05:40:39;100834.53;;;20.50;78.26
3132;BME280;62090;52.330;9.104;2023-05-22T05:43:11;100819.84;;;20.51;78.26
3132;BME280;62090;52.330;9.104;2023-05-22T05:45:43;100819.84;;;20.51;78.65
3132;BME280;62090;52.330;9.104;2023-05-22T05:48:13;100793.28;;;20.37;78.92
3132;BME280;62090;52.330;9.104;2023-05-22T05:50:48;100823.22;;;20.56;78.96
3132;BME280;62090;52.330;9.104;2023-05-22T05:53:18;100799.19;;;20.46;78.61
3132;BME280;62090;52.330;9.104;2023-05-22T05:55:54;100821.19;;;20.73;78.51
3132;BME280;62090;52.330;9.104;2023-05-22T05:58:25;100829.47;;;20.96;77.54
3132;BME280;62090;52.330;9.104;2023-05-22T06:01:25;100826.69;;;21.07;77.23
3132;BME280;62090;52.330;9.104;2023-05-22T06:03:55;100823.94;;;21.18;76.54
3132;BME280;62090;52.330;9.104;2023-05-22T06:06:33;100822.06;;;21.26;76.09
3132;BME280;62090;52.330;9.104;2023-05-22T06:09:14;100823.84;;;21.24;76.24
3132;BME280;62090;52.330;9.104;2023-05-22T06:12:05;100805.72;;;21.22;76.62
3132;BME280;62090;52.330;9.104;2023-05-22T06:14:41;100803.00;;;21.30;75.54
3132;BME280;62090;52.330;9.104;2023-05-22T06:17:13;100828.66;;;21.43;75.73
3132;BME280;62090;52.330;9.104;2023-05-22T06:19:44;100813.25;;;21.36;75.31
3132;BME280;62090;52.330;9.104;2023-05-22T06:22:17;100822.41;;;21.52;75.09
3132;BME280;62090;52.330;9.104;2023-05-22T06:24:49;100842.28;;;21.55;75.88
3132;BME280;62090;52.330;9.104;2023-05-22T06:27:22;100832.03;;;21.47;76.21
3132;BME280;62090;52.330;9.104;2023-05-22T06:29:54;100823.06;;;21.63;75.95
3132;BME280;62090;52.330;9.104;2023-05-22T06:32:30;100819.56;;;21.67;75.50
3132;BME280;62090;52.330;9.104;2023-05-22T06:35:00;100838.94;;;21.91;74.93
3132;BME280;62090;52.330;9.104;2023-05-22T06:37:33;100837.16;;;21.95;75.33
3132;BME280;62090;52.330;9.104;2023-05-22T06:40:06;100809.19;;;21.67;74.30
3132;BME280;62090;52.330;9.104;2023-05-22T06:42:45;100844.44;;;21.76;74.87
3132;BME280;62090;52.330;9.104;2023-05-22T06:45:35;100844.44;;;21.76;75.79
3132;BME280;62090;52.330;9.104;2023-05-22T06:48:27;100819.59;;;21.64;75.57
3132;BME280;62090;52.330;9.104;2023-05-22T06:51:04;100816.81;;;21.73;75.21
3132;BME280;62090;52.330;9.104;2023-05-22T06:53:42;100804.19;;;22.00;74.91
3132;BME280;62090;52.330;9.104;2023-05-22T06:56:16;100787.72;;;22.02;74.02
3132;BME280;62090;52.330;9.104;2023-05-22T06:58:58;100839.03;;;22.29;74.36
3132;BME280;62090;52.330;9.104;2023-05-22T07:01:50;100838.50;;;22.52;73.64
3132;BME280;62090;52.330;9.104;2023-05-22T07:04:37;100817.81;;;22.48;73.24
3132;BME280;62090;52.330;9.104;2023-05-22T07:07:11;100842.25;;;22.39;72.42
3132;BME280;62090;52.330;9.104;2023-05-22T07:09:44;100834.72;;;22.28;73.69
3132;BME280;62090;52.330;9.104;2023-05-22T07:12:15;100842.00;;;22.51;73.58
3132;BME280;62090;52.330;9.104;2023-05-22T07:14:46;100846.56;;;22.79;72.22
3132;BME280;62090;52.330;9.104;2023-05-22T07:17:16;100840.63;;;22.73;72.90
3132;BME280;62090;52.330;9.104;2023-05-22T07:19:48;100850.13;;;22.74;72.22
3132;BME280;62090;52.330;9.104;2023-05-22T07:22:18;100838.91;;;22.72;71.86
3132;BME280;62090;52.330;9.104;2023-05-22T07:24:50;100827.34;;;22.84;71.48
3132;BME280;62090;52.330;9.104;2023-05-22T07:27:22;100833.84;;;23.02;71.17
3132;BME280;62090;52.330;9.104;2023-05-22T07:29:52;100808.25;;;22.87;72.27
3132;BME280;62090;52.330;9.104;2023-05-22T07:32:22;100837.16;;;23.08;71.10
3132;BME280;62090;52.330;9.104;2023-05-22T07:34:52;100842.41;;;23.05;70.78
3132;BME280;62090;52.330;9.104;2023-05-22T07:37:23;100836.88;;;23.19;70.68
3132;BME280;62090;52.330;9.104;2023-05-22T07:39:55;100828.66;;;23.34;70.55
3132;BME280;62090;52.330;9.104;2023-05-22T07:42:25;100838.09;;;23.38;69.21
3132;BME280;62090;52.330;9.104;2023-05-22T07:44:56;100833.78;;;23.37;69.00
3132;BME280;62090;52.330;9.104;2023-05-22T07:47:27;100844.78;;;23.48;68.46
3132;BME280;62090;52.330;9.104;2023-05-22T07:49:58;100824.75;;;23.52;68.41
3132;BME280;62090;52.330;9.104;2023-05-22T07:52:31;100822.09;;;23.53;68.11
3132;BME280;62090;52.330;9.104;2023-05-22T07:55:05;100825.22;;;23.66;68.12
3132;BME280;62090;52.330;9.104;2023-05-22T07:57:38;100778.97;;;23.46;69.37
3132;BME280;62090;52.330;9.104;2023-05-22T08:00:26;100831.31;;;23.65;69.06
3132;BME280;62090;52.330;9.104;2023-05-22T08:02:57;100794.47;;;23.49;69.17
3132;BME280;62090;52.330;9.104;2023-05-22T08:05:27;100842.63;;;23.95;68.47
3132;BME280;62090;52.330;9.104;2023-05-22T08:07:57;100855.25;;;24.07;68.90
3132;BME280;62090;52.330;9.104;2023-05-22T08:10:29;100844.00;;;24.36;68.18
3132;BME280;62090;52.330;9.104;2023-05-22T08:13:13;100840.44;;;24.38;66.70
3132;BME280;62090;52.330;9.104;2023-05-22T08:15:43;100838.72;;;24.37;67.19
3132;BME280;62090;52.330;9.104;2023-05-22T08:18:13;100824.72;;;24.12;67.61
3132;BME280;62090;52.330;9.104;2023-05-22T08:20:43;100823.69;;;24.19;67.87
3132;BME280;62090;52.330;9.104;2023-05-22T08:23:13;100837.13;;;24.33;66.94
3132;BME280;62090;52.330;9.104;2023-05-22T08:25:46;100841.31;;;24.39;67.52
3132;BME280;62090;52.330;9.104;2023-05-22T08:28:16;100841.22;;;24.42;67.74
3132;BME280;62090;52.330;9.104;2023-05-22T08:30:46;100834.53;;;24.33;68.39
3132;BME280;62090;52.330;9.104;2023-05-22T08:33:15;100842.09;;;24.43;67.95
3132;BME280;62090;52.330;9.104;2023-05-22T08:35:45;100839.22;;;24.50;67.00
3132;BME280;62090;52.330;9.104;2023-05-22T08:38:15;100803.19;;;24.07;68.70
3132;BME280;62090;52.330;9.104;2023-05-22T08:40:50;100816.22;;;24.36;68.26
3132;BME280;62090;52.330;9.104;2023-05-22T08:43:22;100824.03;;;24.36;67.27
3132;BME280;62090;52.330;9.104;2023-05-22T08:45:56;100813.47;;;24.41;68.58
3132;BME280;62090;52.330;9.104;2023-05-22T08:48:29;100825.19;;;24.54;67.87
3132;BME280;62090;52.330;9.104;2023-05-22T08:51:02;100825.06;;;24.85;68.44
3132;BME280;62090;52.330;9.104;2023-05-22T08:53:34;100815.53;;;24.84;66.96
3132;BME280;62090;52.330;9.104;2023-05-22T08:56:07;100818.88;;;24.89;65.33
3132;BME280;62090;52.330;9.104;2023-05-22T08:58:37;100813.09;;;25.06;65.21
3132;BME280;62090;52.330;9.104;2023-05-22T09:01:07;100817.94;;;25.16;64.40
3132;BME280;62090;52.330;9.104;2023-05-22T09:03:37;100801.66;;;25.33;64.66
3132;BME280;62090;52.330;9.104;2023-05-22T09:06:08;100806.69;;;25.39;63.35
3132;BME280;62090;52.330;9.104;2023-05-22T09:08:38;100749.66;;;25.05;64.21
3132;BME280;62090;52.330;9.104;2023-05-22T09:11:11;100803.84;;;25.45;66.14
3132;BME280;62090;52.330;9.104;2023-05-22T09:13:41;100796.94;;;25.44;65.94
3132;BME280;62090;52.330;9.104;2023-05-22T09:16:12;100803.16;;;25.65;65.56
3132;BME280;62090;52.330;9.104;2023-05-22T09:18:42;100790.22;;;25.62;64.00
3132;BME280;62090;52.330;9.104;2023-05-22T09:21:12;100777.31;;;25.59;64.65
3132;BME280;62090;52.330;9.104;2023-05-22T09:23:58;100750.63;;;25.49;64.31
3132;BME280;62090;52.330;9.104;2023-05-22T09:26:31;100787.03;;;25.77;63.95
3132;BME280;62090;52.330;9.104;2023-05-22T09:29:01;100774.75;;;25.57;64.44
3132;BME280;62090;52.330;9.104;2023-05-22T09:31:31;100800.41;;;25.70;63.51
3132;BME280;62090;52.330;9.104;2023-05-22T09:34:07;100793.16;;;25.76;64.35
3132;BME280;62090;52.330;9.104;2023-05-22T09:36:40;100776.81;;;25.71;63.97
3132;BME280;62090;52.330;9.104;2023-05-22T09:39:10;100788.06;;;25.73;64.91
3132;BME280;62090;52.330;9.104;2023-05-22T09:41:43;100762.47;;;25.59;64.19
3132;BME280;62090;52.330;9.104;2023-05-22T09:44:13;100778.84;;;25.86;65.40
3132;BME280;62090;52.330;9.104;2023-05-22T09:46:44;100760.72;;;25.83;66.23
3132;BME280;62090;52.330;9.104;2023-05-22T09:49:14;100782.59;;;26.02;64.62
3132;BME280;62090;52.330;9.104;2023-05-22T09:51:45;100758.31;;;26.00;64.12
3132;BME280;62090;52.330;9.104;2023-05-22T09:54:18;100781.00;;;26.43;61.22
3132;BME280;62090;52.330;9.104;2023-05-22T09:56:55;100784.56;;;26.63;60.33
3132;BME280;62090;52.330;9.104;2023-05-22T09:59:27;100787.13;;;26.84;59.13
3132;BME280;62090;52.330;9.104;2023-05-22T10:01:59;100784.69;;;27.02;59.84
3132;BME280;62090;52.330;9.104;2023-05-22T10:04:31;100775.13;;;27.01;56.86
3132;BME280;62090;52.330;9.104;2023-05-22T10:07:03;100783.63;;;27.06;55.60
3132;BME280;62090;52.330;9.104;2023-05-22T10:09:35;100783.38;;;27.12;55.59
3132;BME280;62090;52.330;9.104;2023-05-22T10:12:10;100747.69;;;26.91;54.87
3132;BME280;62090;52.330;9.104;2023-05-22T10:14:42;100782.91;;;27.02;55.04
3132;BME280;62090;52.330;9.104;2023-05-22T10:17:12;100770.53;;;26.85;56.25
3132;BME280;62090;52.330;9.104;2023-05-22T10:19:43;100765.19;;;26.88;56.90
3132;BME280;62090;52.330;9.104;2023-05-22T10:22:15;100778.00;;;26.95;56.10
3132;BME280;62090;52.330;9.104;2023-05-22T10:24:47;100771.72;;;26.99;56.81
3132;BME280;62090;52.330;9.104;2023-05-22T10:27:20;100754.38;;;27.16;55.59
3132;BME280;62090;52.330;9.104;2023-05-22T10:29:54;100772.00;;;27.52;55.97
3132;BME280;62090;52.330;9.104;2023-05-22T10:32:34;100753.13;;;27.64;54.85
3132;BME280;62090;52.330;9.104;2023-05-22T10:35:15;100749.00;;;27.77;53.85
3132;BME280;62090;52.330;9.104;2023-05-22T10:37:49;100757.63;;;27.98;53.23
3132;BME280;62090;52.330;9.104;2023-05-22T10:40:24;100748.72;;;27.83;52.90
3132;BME280;62090;52.330;9.104;2023-05-22T10:43:01;100761.81;;;28.02;53.05
3132;BME280;62090;52.330;9.104;2023-05-22T10:45:31;100751.47;;;27.99;53.15
3132;BME280;62090;52.330;9.104;2023-05-22T10:48:03;100755.94;;;28.16;53.36
3132;BME280;62090;52.330;9.104;2023-05-22T10:50:34;100756.72;;;27.99;52.83
3132;BME280;62090;52.330;9.104;2023-05-22T10:53:21;100760.84;;;27.86;52.35
3132;BME280;62090;52.330;9.104;2023-05-22T10:55:52;100760.56;;;27.73;53.19
3132;BME280;62090;52.330;9.104;2023-05-22T10:58:29;100761.41;;;27.73;52.45
3132;BME280;62090;52.330;9.104;2023-05-22T11:01:10;100748.31;;;27.73;53.24
3132;BME280;62090;52.330;9.104;2023-05-22T11:03:51;100758.78;;;27.73;55.45
3132;BME280;62090;52.330;9.104;2023-05-22T11:06:30;100739.63;;;27.54;56.23
3132;BME280;62090;52.330;9.104;2023-05-22T11:09:15;100757.47;;;27.65;57.31
3132;BME280;62090;52.330;9.104;2023-05-22T11:11:46;100759.97;;;27.66;57.62
3132;BME280;62090;52.330;9.104;2023-05-22T11:14:19;100741.75;;;27.65;56.59
3132;BME280;62090;52.330;9.104;2023-05-22T11:16:58;100715.94;;;27.37;58.45
3132;BME280;62090;52.330;9.104;2023-05-22T11:19:28;100722.91;;;27.18;60.67
3132;BME280;62090;52.330;9.104;2023-05-22T11:21:59;100731.06;;;27.30;59.35
3132;BME280;62090;52.330;9.104;2023-05-22T11:24:31;100748.59;;;27.28;59.35
3132;BME280;62090;52.330;9.104;2023-05-22T11:27:05;100734.03;;;27.23;59.53
3132;BME280;62090;52.330;9.104;2023-05-22T11:29:39;100750.44;;;27.45;58.99
3132;BME280;62090;52.330;9.104;2023-05-22T11:32:11;100751.91;;;27.52;59.52
3132;BME280;62090;52.330;9.104;2023-05-22T11:34:46;100740.44;;;27.55;58.44
3132;BME280;62090;52.330;9.104;2023-05-22T11:37:16;100747.81;;;27.65;56.58
3132;BME280;62090;52.330;9.104;2023-05-22T11:39:53;100753.78;;;27.69;56.57
3132;BME280;62090;52.330;9.104;2023-05-22T11:42:24;100718.91;;;27.48;56.62
3132;BME280;62090;52.330;9.104;2023-05-22T11:44:57;100737.31;;;27.65;56.52
3132;BME280;62090;52.330;9.104;2023-05-22T11:47:27;100739.31;;;27.60;56.58
3132;BME280;62090;52.330;9.104;2023-05-22T11:49:57;100740.03;;;27.64;56.56
3132;BME280;62090;52.330;9.104;2023-05-22T11:52:30;100690.53;;;27.39;57.15
3132;BME280;62090;52.330;9.104;2023-05-22T11:55:02;100727.44;;;27.53;56.79
3132;BME280;62090;52.330;9.104;2023-05-22T11:57:32;100715.66;;;27.43;56.56
3132;BME280;62090;52.330;9.104;2023-05-22T12:00:06;100707.88;;;27.42;57.07
3132;BME280;62090;52.330;9.104;2023-05-22T12:02:43;100674.06;;;27.37;57.57
3132;BME280;62090;52.330;9.104;2023-05-22T12:05:13;100692.91;;;27.64;56.89
3132;BME280;62090;52.330;9.104;2023-05-22T12:07:44;100711.38;;;27.80;55.98
3132;BME280;62090;52.330;9.104;2023-05-22T12:10:14;100717.41;;;27.99;57.17
3132;BME280;62090;52.330;9.104;2023-05-22T12:12:44;100708.09;;;28.12;55.35
3132;BME280;62090;52.330;9.104;2023-05-22T12:15:17;100665.81;;;27.82;54.96
3132;BME280;62090;52.330;9.104;2023-05-22T12:17:47;100700.69;;;28.20;56.03
3132;BME280;62090;52.330;9.104;2023-05-22T12:20:17;100696.78;;;28.29;56.20
3132;BME280;62090;52.330;9.104;2023-05-22T12:22:48;100666.59;;;28.20;56.02
3132;BME280;62090;52.330;9.104;2023-05-22T12:25:17;100662.75;;;28.27;55.25
3132;BME280;62090;52.330;9.104;2023-05-22T12:27:50;100671.19;;;28.34;55.85
3132;BME280;62090;52.330;9.104;2023-05-22T12:30:22;100683.75;;;28.27;56.74
3132;BME280;62090;52.330;9.104;2023-05-22T12:32:52;100692.84;;;28.37;56.29
3132;BME280;62090;52.330;9.104;2023-05-22T12:35:27;100687.59;;;28.37;55.35
3132;BME280;62090;52.330;9.104;2023-05-22T12:37:57;100673.00;;;28.14;56.01
3132;BME280;62090;52.330;9.104;2023-05-22T12:40:27;100682.72;;;28.30;57.14
3132;BME280;62090;52.330;9.104;2023-05-22T12:42:57;100655.28;;;28.20;56.19
3132;BME280;62090;52.330;9.104;2023-05-22T12:45:29;100670.00;;;28.22;54.33
3132;BME280;62090;52.330;9.104;2023-05-22T12:47:59;100685.53;;;28.44;54.69
3132;BME280;62090;52.330;9.104;2023-05-22T12:50:29;100678.41;;;28.46;54.98
3132;BME280;62090;52.330;9.104;2023-05-22T12:53:02;100678.63;;;28.59;55.86
3132;BME280;62090;52.330;9.104;2023-05-22T12:55:32;100681.69;;;28.67;54.37
3132;BME280;62090;52.330;9.104;2023-05-22T12:58:02;100683.47;;;28.66;54.50
3132;BME280;62090;52.330;9.104;2023-05-22T13:00:35;100685.75;;;28.74;55.21
3132;BME280;62090;52.330;9.104;2023-05-22T13:03:05;100674.63;;;28.69;54.07
3132;BME280;62090;52.330;9.104;2023-05-22T13:05:35;100668.63;;;28.49;54.48
3132;BME280;62090;52.330;9.104;2023-05-22T13:08:05;100641.56;;;28.14;54.30
3132;BME280;62090;52.330;9.104;2023-05-22T13:10:35;100681.19;;;28.26;56.54
3132;BME280;62090;52.330;9.104;2023-05-22T13:13:05;100671.94;;;28.36;56.22
3132;BME280;62090;52.330;9.104;2023-05-22T13:15:37;100680.66;;;28.36;56.07
3132;BME280;62090;52.330;9.104;2023-05-22T13:18:08;100671.38;;;28.46;55.36
3132;BME280;62090;52.330;9.104;2023-05-22T13:20:38;100665.53;;;28.59;55.38
3132;BME280;62090;52.330;9.104;2023-05-22T13:23:08;100663.19;;;28.70;55.07
3132;BME280;62090;52.330;9.104;2023-05-22T13:25:38;100664.91;;;28.53;56.34
3132;BME280;62090;52.330;9.104;2023-05-22T13:28:08;100655.78;;;28.61;56.10
3132;BME280;62090;52.330;9.104;2023-05-22T13:30:40;100662.41;;;28.68;56.90